SKBO

El Dorado International Airport

Bogota, Colombia
TAF SKBO 171700Z 1718/1818 13008KT 9999 FEW020 SCT090 BECMG 1800/1802 04006KT TEMPO 1808/1812 5000 BR SCT012 PROB40 1809/1811 0500 PRFG VV/// TX20/1718Z TN09/1811Z
Issued Valid From Valid To
Oct-17 @ 17:00 UTC
(3 hours ago)
Oct-17 @ 18:00 UTC
(2 hours ago)
Oct-18 @ 18:00 UTC
(in 22 hours)
Oct-17 @ 18:00 to Oct-18 @ 00:00
TAF SKBO 171700Z 1718/1818 13008KT 9999 FEW020 SCT090
Wind Visibility Clouds
130° at 8 knots 10,000+ meters
  • Few at 2,000' AGL
  • Scattered at 9,000' AGL
Becoming Oct-18 @ 00:00 to Oct-18 @ 18:00
BECMG 1800/1802 04006KT
Wind Visibility Clouds
40° at 6 knots 10,000+ meters
  • Few at 2,000' AGL
  • Scattered at 9,000' AGL
Temporary Oct-18 @ 08:00 to Oct-18 @ 12:00
TEMPO 1808/1812 5000 BR SCT012
Visibility Clouds Conditions
5,005 meters
  • Scattered at 1,200' AGL
  • Mist
Probable  (Probability 40%) Oct-18 @ 09:00 to Oct-18 @ 11:00
PROB40 1809/1811 0500 PRFG VV/// TX20/1718Z TN09/1811Z
Visibility Conditions
499 meters
  • Partial
  • Fog
TAF SKBO 171700Z 1718/1818 13008KT 9999 FEW020 SCT090 BECMG 1800/1802 04006KT TEMPO 1808/1812 5000 BR SCT012 PROB40 1809/1811 0500 PRFG VV/// TX20/1718Z TN09/1811Z
Issued Oct-17 @ 17:00 UTC
(3 hours ago)
Valid From Oct-17 @ 18:00 UTC
(2 hours ago)
Valid To Oct-18 @ 18:00 UTC
(in 22 hours)
Oct-17 @ 18:00 - Oct-18 @ 00:00
Wind Visibility
130° at 8 knots 10,000+ meters
Clouds
  • Few at 2,000' AGL
  • Scattered at 9,000' AGL
Becoming Oct-18 @ 00:00 - Oct-18 @ 18:00
Wind Visibility
40° at 6 knots 10,000+ meters
Clouds
  • Few at 2,000' AGL
  • Scattered at 9,000' AGL
Temporary Oct-18 @ 08:00 - Oct-18 @ 12:00
Clouds
  • Scattered at 1,200' AGL
Conditions
  • Mist
Probability 40% Probable Oct-18 @ 09:00 - Oct-18 @ 11:00
Conditions
  • Partial
  • Fog